Time;durP1;ratioP1;P1;durP2;ratioP2;P2;SDS_P1;SDS_P2;PMS_P1;PMS_P2;Temp;Humidity;BMP_temperature;BMP_pressure;BME280_temperature;BME280_humidity;BME280_pressure;Samples;Min_cycle;Max_cycle;Signal;HPM_P1;HPM_P2
2023/07/06 07:23:10;;;;;;;16.02;12.40;;;;;;;-145.79;80.52;77542.59;5279991;28;20397;-76
2023/07/06 07:25:41;;;;;;;15.02;11.05;;;;;;;-145.79;79.90;77536.25;5273680;28;20030;-76
2023/07/06 07:28:16;;;;;;;21.15;12.80;;;;;;;-145.79;79.83;77538.38;5258676;28;20027;-77
2023/07/06 07:31:01;;;;;;;17.52;12.30;;;;;;;-145.79;79.30;77517.16;5258153;28;20021;-77
2023/07/06 07:33:33;;;;;;;16.55;12.75;;;;;;;-145.79;78.62;77519.28;5259026;28;20427;-78
2023/07/06 07:36:05;;;;;;;16.85;13.32;;;;;;;-145.79;77.94;77502.34;5270723;28;20032;-81
2023/07/06 07:38:37;;;;;;;15.82;11.65;;;;;;;-145.79;78.44;77504.47;5278957;28;20024;-78
2023/07/06 07:41:09;;;;;;;16.50;11.85;;;;;;;-145.79;78.00;77487.50;5279487;28;20024;-78
2023/07/06 07:43:42;;;;;;;15.90;11.38;;;;;;;-145.79;77.38;77476.91;5276881;28;20175;-78
2023/07/06 07:46:15;;;;;;;19.83;11.45;;;;;;;-145.79;76.54;77464.19;5258116;28;20159;-79
2023/07/06 07:48:49;;;;;;;18.48;11.13;;;;;;;-145.79;76.65;77466.31;5258866;28;20056;-79
2023/07/06 07:51:23;;;;;;;18.95;13.57;;;;;;;-145.79;76.34;77457.81;5258604;28;20025;-79
2023/07/06 07:53:55;;;;;;;16.83;11.60;;;;;;;-145.79;76.43;77447.22;5276783;28;20384;-78
2023/07/06 07:56:27;;;;;;;14.90;11.77;;;;;;;-145.79;75.93;77445.09;5279168;28;20077;-77
2023/07/06 07:58:58;;;;;;;13.55;11.35;;;;;;;-145.79;76.64;77445.09;5278412;28;20384;-79
2023/07/06 08:01:30;;;;;;;24.13;12.95;;;;;;;-145.79;76.43;77428.16;5279167;28;20460;-77
2023/07/06 08:04:04;;;;;;;19.38;12.70;;;;;;;-145.79;76.28;77413.31;5259956;28;20414;-79
2023/07/06 08:06:38;;;;;;;15.15;11.38;;;;;;;-145.79;75.69;77409.06;5257410;28;20029;-79
2023/07/06 08:09:09;;;;;;;13.05;10.23;;;;;;;-145.79;75.33;77381.50;5262378;28;20028;-79
2023/07/06 08:11:46;;;;;;;13.25;11.27;;;;;;;-145.79;74.33;77385.75;5279092;28;20029;-79
2023/07/06 08:14:39;;;;;;;15.10;10.90;;;;;;;-145.79;74.39;77370.91;5278439;28;20044;-76
2023/07/06 08:17:10;;;;;;;16.70;12.00;;;;;;;-145.79;72.92;77375.16;5278775;28;20021;-75
2023/07/06 08:19:45;;;;;;;14.18;10.85;;;;;;;-145.79;72.89;77356.06;5278614;28;20028;-77
2023/07/06 08:22:17;;;;;;;13.70;10.90;;;;;;;-145.79;72.21;77345.47;5277446;28;20064;-75
2023/07/06 08:24:48;;;;;;;14.40;11.48;;;;;;;-145.79;72.20;77337.00;5278669;28;20025;-76
2023/07/06 08:27:20;;;;;;;15.52;10.68;;;;;;;-145.79;72.47;77339.13;5262056;28;20507;-75
2023/07/06 08:29:52;;;;;;;13.32;11.65;;;;;;;-145.79;71.90;77309.44;5256327;28;20399;-75
2023/07/06 08:32:26;;;;;;;17.35;10.90;;;;;;;-145.79;70.60;77300.97;5254695;28;20036;-76
2023/07/06 08:34:58;;;;;;;13.18;10.30;;;;;;;-145.79;70.24;77294.59;5242191;28;20116;-76
2023/07/06 08:37:29;;;;;;;11.18;9.30;;;;;;;-145.79;69.92;77279.78;5242767;28;20083;-76
2023/07/06 08:40:01;;;;;;;13.13;9.68;;;;;;;-145.79;68.58;77284.00;5252936;28;20017;-76
2023/07/06 08:42:32;;;;;;;12.75;9.15;;;;;;;-145.79;68.46;77271.28;5263344;28;20037;-77
2023/07/06 08:45:04;;;;;;;19.08;14.90;;;;;;;-145.79;67.33;77271.28;5263147;28;20032;-79
2023/07/06 08:47:39;;;;;;;16.42;8.43;;;;;;;-145.79;67.25;77252.22;5262017;28;20025;-77
2023/07/06 08:50:12;;;;;;;11.50;8.00;;;;;;;-145.79;66.21;77254.34;5261097;28;20025;-77
2023/07/06 08:52:43;;;;;;;14.15;8.52;;;;;;;-145.79;64.79;77216.19;5261733;28;20307;-77
2023/07/06 08:55:17;;;;;;;11.23;7.57;;;;;;;-145.79;65.19;77250.09;5261244;28;20476;-76
2023/07/06 08:57:49;;;;;;;14.38;7.78;;;;;;;-145.79;65.03;77258.56;5261431;28;20025;-75
2023/07/06 09:00:25;;;;;;;14.48;7.60;;;;;;;-145.79;65.12;77250.09;5261195;28;20036;-78
2023/07/06 09:03:05;;;;;;;9.52;7.05;;;;;;;-145.79;65.25;77256.47;5263081;28;20025;-79
2023/07/06 09:05:41;;;;;;;11.32;7.30;;;;;;;-145.79;64.90;77252.22;5264422;28;20025;-80
2023/07/06 09:08:15;;;;;;;;;;;;;;;-145.79;64.65;77233.16;5264495;28;20028;-80
2023/07/06 09:10:48;;;;;;;9.43;6.50;;;;;;;-145.79;65.14;77250.09;5263088;28;19912;-79
2023/07/06 09:13:24;;;;;;;9.40;6.63;;;;;;;-145.79;66.20;77247.97;5263715;28;20021;-78
2023/07/06 09:16:00;;;;;;;8.80;5.30;;;;;;;-145.79;64.07;77254.34;5264156;28;20112;-78
2023/07/06 09:18:32;;;;;;;10.60;6.20;;;;;;;-145.79;62.62;77226.78;5262170;28;20079;-79
2023/07/06 09:21:04;;;;;;;9.73;4.70;;;;;;;-145.79;62.14;77218.31;5263564;28;20052;-79
2023/07/06 09:23:35;;;;;;;12.63;5.47;;;;;;;-145.79;62.28;77207.72;5262957;28;20408;-79
2023/07/06 09:26:08;;;;;;;13.50;7.00;;;;;;;-145.79;61.63;77209.81;5264054;28;20090;-79
2023/07/06 09:28:39;;;;;;;7.68;4.60;;;;;;;-145.79;60.54;77190.75;5263351;28;20104;-79
2023/07/06 09:31:19;;;;;;;11.77;5.40;;;;;;;-145.79;60.50;77180.16;5262864;28;20055;-78
2023/07/06 09:33:53;;;;;;;8.55;4.47;;;;;;;-145.79;60.19;77165.31;5262784;28;20407;-75
2023/07/06 09:36:25;;;;;;;9.57;5.18;;;;;;;-145.79;59.95;77165.31;5263169;28;20391;-76
2023/07/06 09:39:08;;;;;;;7.35;3.83;;;;;;;-145.79;60.19;77150.47;5262029;28;20025;-79
2023/07/06 09:41:44;;;;;;;7.90;4.18;;;;;;;-145.79;58.38;77156.84;5254125;28;20468;-78
2023/07/06 09:44:26;;;;;;;10.02;4.45;;;;;;;-145.79;57.73;77152.59;5241270;28;20056;-80
2023/07/06 09:46:59;;;;;;;9.30;4.05;;;;;;;-145.79;57.59;77142.00;5242335;28;20025;-79
2023/07/06 09:49:38;;;;;;;5.25;3.65;;;;;;;-145.79;56.46;77139.88;5242092;28;20025;-75
2023/07/06 09:52:12;;;;;;;7.53;4.10;;;;;;;-145.79;56.42;77131.41;5253906;28;20025;-74
2023/07/06 09:55:11;;;;;;;9.07;4.00;;;;;;;-145.79;57.20;77122.94;5263261;28;20504;-74
2023/07/06 09:57:44;;;;;;;7.95;3.33;;;;;;;-145.79;54.81;77105.97;5263157;28;20383;-78
2023/07/06 10:00:19;;;;;;;8.63;3.65;;;;;;;-145.79;54.68;77114.44;5262058;28;20103;-78
2023/07/06 10:02:57;;;;;;;9.13;3.93;;;;;;;-145.79;55.09;77084.78;5262870;28;20040;-81
2023/07/06 10:05:37;;;;;;;8.25;3.63;;;;;;;-145.79;53.75;77084.78;5262350;28;20412;-80
2023/07/06 10:08:20;;;;;;;8.52;4.05;;;;;;;-145.79;54.82;77084.78;5258731;28;20033;-74
2023/07/06 10:10:54;;;;;;;9.48;4.18;;;;;;;-145.79;55.14;77065.69;5242195;28;20507;-78
2023/07/06 10:13:27;;;;;;;8.30;3.72;;;;;;;-145.79;54.46;77063.59;5241298;28;20373;-78
2023/07/06 10:16:07;;;;;;;6.28;3.30;;;;;;;-145.79;53.08;77057.22;5242296;28;20519;-78
2023/07/06 10:18:50;;;;;;;6.03;3.25;;;;;;;-145.79;51.22;77046.63;5241722;28;20701;-78
2023/07/06 10:21:45;;;;;;;7.13;2.70;;;;;;;-145.79;50.80;77031.78;5241089;28;20049;-78
2023/07/06 10:24:40;;;;;;;6.78;3.03;;;;;;;-145.79;50.60;77033.91;5241813;28;20036;-78
2023/07/06 10:27:17;;;;;;;4.95;2.72;;;;;;;-145.79;50.76;77021.19;5241040;28;20025;-78
2023/07/06 10:29:53;;;;;;;5.32;2.97;;;;;;;-145.79;50.81;77010.59;5251918;28;20043;-77
2023/07/06 10:32:30;;;;;;;6.25;3.60;;;;;;;-145.79;50.72;77004.25;5263247;28;20025;-79
2023/07/06 10:35:12;;;;;;;5.22;2.63;;;;;;;-145.79;49.28;76995.75;5261906;28;20047;-76
2023/07/06 10:37:44;;;;;;;5.15;3.00;;;;;;;-145.79;49.94;76974.56;5263073;28;20380;-77
2023/07/06 10:40:19;;;;;;;5.93;3.35;;;;;;;-145.79;50.50;77004.25;5262634;28;20061;-78
2023/07/06 10:43:23;;;;;;;;;;;;;;;-145.79;50.02;76974.56;5260837;28;20032;-77
2023/07/06 10:45:59;;;;;;;7.05;3.30;;;;;;;-145.79;49.45;76985.16;5271755;28;19912;-77
2023/07/06 10:48:34;;;;;;;5.30;2.70;;;;;;;-145.79;49.99;76974.56;5261193;28;20349;-79
2023/07/06 10:51:05;;;;;;;3.88;2.95;;;;;;;-145.79;49.37;76976.69;5261790;28;20032;-78
2023/07/06 10:53:40;;;;;;;4.43;2.30;;;;;;;-145.79;48.17;76968.22;5261977;28;20021;-78
2023/07/06 10:56:11;;;;;;;5.63;1.90;;;;;;;-145.79;47.41;76944.91;5260477;28;20108;-78
2023/07/06 10:58:59;;;;;;;4.90;2.85;;;;;;;-145.79;47.16;76936.41;5260774;28;20104;-78
2023/07/06 11:01:39;;;;;;;4.93;2.78;;;;;;;-145.79;47.00;76944.91;5261415;28;20384;-77
2023/07/06 11:04:41;;;;;;;3.63;2.33;;;;;;;-145.79;46.14;76970.31;5261615;28;20025;-75
2023/07/06 11:07:35;;;;;;;4.22;2.20;;;;;;;-145.79;47.69;76963.97;5261913;28;20554;-75
2023/07/06 11:10:19;;;;;;;7.55;3.38;;;;;;;-145.79;48.10;76966.09;5260316;28;20120;-75
2023/07/06 11:13:04;;;;;;;4.53;2.72;;;;;;;-145.79;47.08;76995.75;5261715;28;20441;-76
2023/07/06 11:15:35;;;;;;;6.97;2.28;;;;;;;-145.79;46.77;76995.75;5261391;28;20113;-77
2023/07/06 11:18:18;;;;;;;3.13;2.15;;;;;;;-145.79;47.36;76987.28;5241942;28;20564;-77
2023/07/06 11:20:57;;;;;;;5.25;2.08;;;;;;;-145.79;47.25;76976.69;5260857;28;20029;-76
2023/07/06 11:23:57;;;;;;;10.65;6.47;;;;;;;-145.79;47.66;76957.59;5260803;28;20104;-77
2023/07/06 11:26:43;;;;;;;6.00;2.47;;;;;;;-145.79;47.12;76989.41;5258934;28;20033;-77
2023/07/06 11:29:19;;;;;;;4.20;2.40;;;;;;;-145.79;47.71;76987.28;5261551;28;20021;-79
2023/07/06 11:32:12;;;;;;;4.97;2.63;;;;;;;-145.79;47.29;76989.41;5260581;28;20024;-77
2023/07/06 11:34:55;;;;;;;4.40;2.28;;;;;;;-145.79;46.83;76995.75;5260615;28;20021;-77
2023/07/06 11:37:41;;;;;;;6.00;2.30;;;;;;;-145.79;47.34;76983.03;5260570;28;20032;-77
2023/07/06 11:40:20;;;;;;;3.83;2.38;;;;;;;-145.79;46.25;76991.53;5261098;28;20079;-77
2023/07/06 11:42:57;;;;;;;3.63;2.00;;;;;;;-145.79;47.05;76991.53;5261223;28;20029;-77
2023/07/06 11:45:44;;;;;;;4.60;2.30;;;;;;;-145.79;47.19;76995.75;5260431;28;20025;-79
2023/07/06 11:48:45;;;;;;;4.57;2.03;;;;;;;-145.79;47.05;77002.13;5261209;28;20151;-76
2023/07/06 11:51:19;;;;;;;4.18;2.22;;;;;;;-145.79;47.17;76963.97;5259566;28;20087;-72
2023/07/06 11:53:56;;;;;;;3.58;2.28;;;;;;;-145.79;46.45;76947.00;5261235;28;20140;-72
2023/07/06 11:56:35;;;;;;;4.10;2.13;;;;;;;-145.79;45.70;76949.13;5261023;28;20031;-72
2023/07/06 11:59:25;;;;;;;4.75;2.40;;;;;;;-145.79;45.71;76953.38;5260158;28;20305;-77
2023/07/06 12:01:57;;;;;;;3.38;1.77;;;;;;;-145.79;45.78;76949.13;5260787;28;20029;-74
2023/07/06 12:04:29;;;;;;;5.95;2.90;;;;;;;-145.79;46.07;76961.84;5261110;28;20556;-76
2023/07/06 12:07:08;;;;;;;4.65;2.40;;;;;;;-145.79;46.47;76968.22;5259221;28;20024;-73
2023/07/06 12:09:39;;;;;;;5.68;2.33;;;;;;;-145.79;46.73;76972.44;5264288;28;20075;-78
2023/07/06 12:12:16;;;;;;;11.77;9.50;;;;;;;-145.79;46.97;76972.44;5263903;28;20481;-78
2023/07/06 12:14:48;;;;;;;6.75;2.28;;;;;;;-145.79;46.80;76985.16;5264983;28;20074;-77
2023/07/06 12:17:19;;;;;;;5.82;2.22;;;;;;;-145.79;46.33;76995.75;5264487;28;20017;-77
2023/07/06 12:19:58;;;;;;;6.07;2.10;;;;;;;-145.79;46.65;76972.44;5264269;28;20376;-77
2023/07/06 12:22:29;;;;;;;3.38;1.95;;;;;;;-145.79;45.31;76970.31;5264656;28;20067;-77
2023/07/06 12:25:01;;;;;;;4.32;2.13;;;;;;;-145.79;45.48;76978.81;5264163;28;20044;-79
2023/07/06 12:27:33;;;;;;;4.68;2.15;;;;;;;-145.79;46.38;76970.31;5263631;28;20059;-79
2023/07/06 12:30:06;;;;;;;5.07;2.80;;;;;;;-145.79;46.19;76980.94;5264330;28;20025;-79
2023/07/06 12:32:37;;;;;;;5.53;3.33;;;;;;;-145.79;46.40;76938.53;5264565;28;20115;-78
2023/07/06 12:35:11;;;;;;;5.43;2.17;;;;;;;-145.79;45.63;76940.66;5263979;28;20100;-77
2023/07/06 12:37:44;;;;;;;3.28;1.73;;;;;;;-145.79;45.45;76940.66;5264372;28;20107;-77
2023/07/06 12:40:21;;;;;;;3.55;2.03;;;;;;;-145.79;45.60;76932.19;5263683;28;20033;-78
2023/07/06 12:42:53;;;;;;;4.07;2.00;;;;;;;-145.79;44.62;76936.41;5263014;28;20040;-78
2023/07/06 12:45:26;;;;;;;3.20;1.88;;;;;;;-145.79;44.62;76910.97;5264649;28;20472;-77
2023/07/06 12:48:04;;;;;;;3.97;2.30;;;;;;;-145.79;44.56;76879.19;5264226;28;20468;-76
2023/07/06 12:50:41;;;;;;;6.38;2.10;;;;;;;-145.79;44.29;76874.94;5264006;28;20035;-75
2023/07/06 12:53:22;;;;;;;4.53;2.20;;;;;;;-145.79;44.09;76877.06;5264469;28;20021;-77
2023/07/06 12:56:00;;;;;;;3.65;1.90;;;;;;;-145.79;43.67;76849.53;5263904;28;20114;-76
2023/07/06 12:58:36;;;;;;;3.78;1.83;;;;;;;-145.79;41.65;76860.13;5262658;28;20491;-77
2023/07/06 13:01:25;;;;;;;3.90;1.90;;;;;;;-145.79;41.90;76821.97;5263625;28;20365;-77
2023/07/06 13:04:09;;;;;;;4.88;1.90;;;;;;;-145.79;41.31;76779.59;5263821;28;20043;-77
2023/07/06 13:06:46;;;;;;;3.42;2.13;;;;;;;-145.79;38.61;76754.16;5264320;28;20029;-79
2023/07/06 13:09:27;;;;;;;4.00;1.85;;;;;;;-145.79;38.73;76741.44;5262934;28;20029;-76
2023/07/06 13:12:07;;;;;;;4.05;2.15;;;;;;;-145.79;39.44;76722.34;5263647;28;20028;-77
2023/07/06 13:14:40;;;;;;;3.67;1.80;;;;;;;-145.79;38.59;76728.72;5262975;28;20065;-76
2023/07/06 13:17:22;;;;;;;2.90;1.80;;;;;;;-145.79;38.71;76694.81;5242294;28;20030;-77
2023/07/06 13:19:54;;;;;;;2.40;1.80;;;;;;;-145.79;38.45;76718.13;5242817;28;20022;-77
2023/07/06 13:22:26;;;;;;;4.13;1.83;;;;;;;-145.79;37.43;76686.34;5242043;28;20045;-77
2023/07/06 13:24:57;;;;;;;2.63;1.75;;;;;;;-145.79;37.24;76656.66;5242952;28;20033;-77
2023/07/06 13:27:29;;;;;;;4.03;1.83;;;;;;;-145.79;36.69;76631.22;5242837;28;20029;-77
2023/07/06 13:30:00;;;;;;;3.08;1.67;;;;;;;-145.79;36.37;76648.19;5241681;28;20496;-77
2023/07/06 13:32:35;;;;;;;4.13;2.15;;;;;;;-145.79;36.06;76641.84;5242829;28;20105;-77
2023/07/06 13:35:09;;;;;;;5.75;2.30;;;;;;;-145.79;38.89;76639.72;5242388;28;20041;-78
2023/07/06 13:37:42;;;;;;;4.22;2.28;;;;;;;-145.79;39.15;76656.66;5261009;28;20028;-78
2023/07/06 13:40:15;;;;;;;6.05;2.20;;;;;;;-145.79;39.16;76652.44;5263311;28;20041;-78
2023/07/06 13:42:50;;;;;;;4.50;2.40;;;;;;;-145.79;39.07;76643.94;5262925;28;20025;-79
2023/07/06 13:45:27;;;;;;;7.43;2.47;;;;;;;-145.79;39.25;76648.19;5262572;28;20472;-74
2023/07/06 13:47:59;;;;;;;5.03;2.22;;;;;;;-145.79;39.12;76679.97;5263128;28;20028;-78
2023/07/06 13:50:31;;;;;;;4.78;2.20;;;;;;;-145.79;39.17;76699.06;5255337;28;20381;-77
2023/07/06 13:53:02;;;;;;;4.80;1.90;;;;;;;-145.79;39.39;76728.72;5263948;28;20022;-78
2023/07/06 13:55:53;;;;;;;4.70;2.38;;;;;;;-145.79;39.80;76743.56;5242234;28;20018;-77
2023/07/06 13:58:28;;;;;;;134.02;121.13;;;;;;;-145.79;39.46;76703.28;5241489;28;20028;-75
2023/07/06 14:00:59;;;;;;;10.98;9.80;;;;;;;-145.79;39.39;76669.38;5241957;28;20053;-77
2023/07/06 14:03:32;;;;;;;2.97;2.22;;;;;;;-145.79;38.69;76660.91;5242191;28;20105;-75
2023/07/06 14:06:04;;;;;;;3.65;2.03;;;;;;;-145.79;38.43;76633.34;5241988;28;20021;-74
2023/07/06 14:08:35;;;;;;;3.95;2.22;;;;;;;-145.79;38.69;76605.81;5241602;28;20539;-75
2023/07/06 14:11:07;;;;;;;6.80;2.90;;;;;;;-145.79;38.51;76671.50;5241558;28;20017;-77
2023/07/06 14:13:39;;;;;;;3.22;1.80;;;;;;;-145.79;39.27;76679.97;5240853;28;20017;-75
2023/07/06 14:16:10;;;;;;;3.72;2.25;;;;;;;-145.79;39.13;76732.97;5241589;28;20425;-76
2023/07/06 14:18:42;;;;;;;3.20;1.95;;;;;;;-145.79;39.48;76724.47;5240702;28;20079;-76
2023/07/06 14:21:19;;;;;;;5.57;2.33;;;;;;;-145.79;40.12;76716.00;5241122;28;20041;-76
2023/07/06 14:23:51;;;;;;;5.57;2.88;;;;;;;-145.79;39.59;76673.63;5251302;28;20029;-76
2023/07/06 14:26:22;;;;;;;5.15;2.53;;;;;;;-145.79;39.11;76707.53;5261636;28;20043;-77
2023/07/06 14:28:55;;;;;;;7.00;2.30;;;;;;;-145.79;39.41;76743.56;5262125;28;20025;-78
2023/07/06 14:31:28;;;;;;;3.15;2.20;;;;;;;-145.79;39.71;76741.44;5261878;28;20029;-79
2023/07/06 14:34:01;;;;;;;5.25;2.75;;;;;;;-145.79;40.53;76737.19;5261354;28;20029;-75
2023/07/06 14:36:33;;;;;;;4.32;2.88;;;;;;;-145.79;40.18;76728.72;5261884;28;20119;-75
2023/07/06 14:39:05;;;;;;;4.75;3.67;;;;;;;-145.79;39.17;76690.56;5261862;28;20037;-77
2023/07/06 14:41:39;;;;;;;4.53;2.75;;;;;;;-145.79;38.80;76639.72;5244912;28;20464;-77
2023/07/06 14:44:10;;;;;;;4.15;2.20;;;;;;;-145.79;38.37;76699.06;5242492;28;20021;-79
2023/07/06 14:46:41;;;;;;;2.55;2.00;;;;;;;-145.79;38.80;76754.16;5240349;28;20375;-79
2023/07/06 14:49:13;;;;;;;5.68;2.50;;;;;;;-145.79;38.82;76754.16;5241219;28;20105;-78
2023/07/06 14:51:44;;;;;;;5.22;2.30;;;;;;;-145.79;38.71;76722.34;5241185;28;20053;-78
2023/07/06 14:54:18;;;;;;;4.93;2.67;;;;;;;-145.79;38.73;76669.38;5240645;28;20025;-78
2023/07/06 14:56:51;;;;;;;6.35;2.92;;;;;;;-145.79;38.75;76637.59;5241589;28;20025;-76
2023/07/06 14:59:22;;;;;;;3.10;2.47;;;;;;;-145.79;37.65;76607.91;5241137;28;20036;-80
2023/07/06 15:01:54;;;;;;;5.68;2.22;;;;;;;-145.79;36.41;76595.22;5240993;28;20445;-79
2023/07/06 15:04:26;;;;;;;4.45;2.00;;;;;;;-145.79;36.62;76582.50;5241048;28;20022;-77
2023/07/06 15:06:57;;;;;;;3.78;1.95;;;;;;;-145.79;37.08;76571.91;5240868;28;20538;-77
2023/07/06 15:09:29;;;;;;;3.25;2.00;;;;;;;-145.79;35.96;76588.84;5239870;28;20021;-77
2023/07/06 15:12:00;;;;;;;4.70;2.13;;;;;;;-145.79;36.63;76597.31;5240704;28;20473;-76
2023/07/06 15:14:31;;;;;;;6.68;2.28;;;;;;;-145.79;36.64;76612.16;5241844;28;20018;-77
2023/07/06 15:17:03;;;;;;;5.10;2.42;;;;;;;-145.79;36.57;76610.03;5240281;28;20129;-77
2023/07/06 15:19:34;;;;;;;3.22;1.88;;;;;;;-145.79;36.54;76601.56;5240987;28;20060;-75
2023/07/06 15:22:07;;;;;;;3.45;2.00;;;;;;;-145.79;36.29;76578.25;5239570;28;20050;-76
2023/07/06 15:24:41;;;;;;;3.85;1.90;;;;;;;-145.79;36.49;76563.41;5241222;28;20437;-76
2023/07/06 15:27:12;;;;;;;3.00;1.80;;;;;;;-145.79;35.65;76542.22;5261249;28;20025;-76
2023/07/06 15:29:44;;;;;;;6.80;4.10;;;;;;;-145.79;34.98;76552.81;5260896;28;20464;-76
2023/07/06 15:32:18;;;;;;;6.43;1.95;;;;;;;-145.79;34.89;76540.09;5260649;28;20044;-76
2023/07/06 15:34:53;;;;;;;3.70;2.00;;;;;;;-145.79;35.31;76542.22;5261267;28;20017;-75
2023/07/06 15:37:24;;;;;;;5.15;1.83;;;;;;;-145.79;35.36;76559.19;5260293;28;20018;-75
2023/07/06 15:39:59;;;;;;;23.05;20.70;;;;;;;-145.79;35.51;76571.91;5261303;28;20040;-76
2023/07/06 15:42:30;;;;;;;6.20;3.83;;;;;;;-145.79;35.34;76542.22;5261187;28;20155;-76
2023/07/06 15:45:02;;;;;;;7.00;1.80;;;;;;;-145.79;36.08;76531.63;5265019;28;20029;-75
2023/07/06 15:47:33;;;;;;;4.15;1.83;;;;;;;-145.79;36.13;76525.28;5265221;28;20024;-75
2023/07/06 15:50:05;;;;;;;5.28;1.80;;;;;;;-145.79;35.71;76531.63;5264091;28;20420;-76
2023/07/06 15:52:37;;;;;;;3.50;2.00;;;;;;;-145.79;35.60;76525.28;5265359;28;20029;-76
2023/07/06 15:55:08;;;;;;;4.13;2.00;;;;;;;-145.79;35.79;76533.75;5265724;28;20032;-77
2023/07/06 15:57:40;;;;;;;2.92;2.03;;;;;;;-145.79;36.07;76525.28;5264852;28;20025;-77
2023/07/06 16:00:11;;;;;;;6.57;2.70;;;;;;;-145.79;36.09;76506.19;5265355;28;20475;-77
2023/07/06 16:02:43;;;;;;;4.18;2.35;;;;;;;-145.79;36.13;76510.44;5265260;28;20032;-77
2023/07/06 16:05:16;;;;;;;7.40;2.08;;;;;;;-145.79;35.71;76529.50;5263768;28;20078;-78
2023/07/06 16:07:48;;;;;;;5.05;2.15;;;;;;;-145.79;35.65;76542.22;5264820;28;20337;-76
2023/07/06 16:10:19;;;;;;;5.10;2.10;;;;;;;-145.79;36.13;76535.88;5264896;28;20151;-76
2023/07/06 16:12:50;;;;;;;5.80;2.17;;;;;;;-145.79;35.87;76552.81;5263815;28;20440;-76
2023/07/06 16:15:22;;;;;;;5.82;2.25;;;;;;;-145.79;35.76;76574.00;5265355;28;20044;-77
2023/07/06 16:17:53;;;;;;;19.98;18.13;;;;;;;-145.79;35.65;76580.38;5264968;28;20017;-78
2023/07/06 16:20:24;;;;;;;5.47;4.07;;;;;;;-145.79;36.31;76563.41;5264285;28;20189;-78
2023/07/06 16:22:56;;;;;;;6.05;2.53;;;;;;;-145.79;35.88;76565.53;5263611;28;20052;-78
2023/07/06 16:25:28;;;;;;;6.40;2.75;;;;;;;-145.79;35.61;76554.94;5263944;28;20036;-78
2023/07/06 16:28:00;;;;;;;4.70;2.00;;;;;;;-145.79;35.72;76563.41;5264990;28;20024;-78
2023/07/06 16:30:32;;;;;;;4.03;2.00;;;;;;;-145.79;35.52;76546.47;5265251;28;20021;-80
2023/07/06 16:33:03;;;;;;;3.22;1.77;;;;;;;-145.79;35.38;76542.22;5264446;28;20112;-80
2023/07/06 16:35:38;;;;;;;4.15;1.88;;;;;;;-145.79;34.75;76550.69;5264983;28;20103;-80
2023/07/06 16:38:09;;;;;;;2.88;1.85;;;;;;;-145.79;34.74;76569.78;5264855;28;20028;-81
2023/07/06 16:40:44;;;;;;;4.97;2.75;;;;;;;-145.79;35.44;76546.47;5263764;28;20013;-80
2023/07/06 16:43:16;;;;;;;4.72;2.65;;;;;;;-145.79;35.82;76542.22;5264784;28;20045;-80
2023/07/06 16:45:48;;;;;;;4.15;2.00;;;;;;;-145.79;34.75;76571.91;5265013;28;20035;-80
2023/07/06 16:48:20;;;;;;;4.78;2.35;;;;;;;-145.79;35.20;76578.25;5263938;28;20032;-80
2023/07/06 16:50:58;;;;;;;3.58;2.08;;;;;;;-145.79;35.25;76552.81;5264959;28;20025;-79
2023/07/06 16:53:30;;;;;;;3.47;2.08;;;;;;;-145.79;35.41;76535.88;5263448;28;20078;-78
